sensor_id;sensor_type;location;lat;lon;timestamp;temperature;humidity
37794;DHT22;23632;48.826;15.176;2022-08-23T00:02:25;16.50;87.60
37794;DHT22;23632;48.826;15.176;2022-08-23T00:04:53;16.50;87.60
37794;DHT22;23632;48.826;15.176;2022-08-23T00:07:40;16.50;87.70
37794;DHT22;23632;48.826;15.176;2022-08-23T00:10:13;16.50;87.80
37794;DHT22;23632;48.826;15.176;2022-08-23T00:12:43;16.50;87.70
37794;DHT22;23632;48.826;15.176;2022-08-23T00:15:14;16.50;87.90
37794;DHT22;23632;48.826;15.176;2022-08-23T00:17:42;16.50;88.00
37794;DHT22;23632;48.826;15.176;2022-08-23T00:20:12;16.50;87.90
37794;DHT22;23632;48.826;15.176;2022-08-23T00:22:41;16.50;87.90
37794;DHT22;23632;48.826;15.176;2022-08-23T00:25:10;16.50;87.90
37794;DHT22;23632;48.826;15.176;2022-08-23T00:27:38;16.50;88.00
37794;DHT22;23632;48.826;15.176;2022-08-23T00:30:08;16.50;88.10
37794;DHT22;23632;48.826;15.176;2022-08-23T00:32:39;16.50;88.20
37794;DHT22;23632;48.826;15.176;2022-08-23T00:35:09;16.60;88.20
37794;DHT22;23632;48.826;15.176;2022-08-23T00:37:38;16.50;88.10
37794;DHT22;23632;48.826;15.176;2022-08-23T00:40:08;16.50;88.10
37794;DHT22;23632;48.826;15.176;2022-08-23T00:45:41;16.50;88.20
37794;DHT22;23632;48.826;15.176;2022-08-23T00:48:32;16.50;88.20
37794;DHT22;23632;48.826;15.176;2022-08-23T00:51:17;16.60;88.40
37794;DHT22;23632;48.826;15.176;2022-08-23T00:53:55;16.50;88.30
37794;DHT22;23632;48.826;15.176;2022-08-23T00:56:29;16.50;88.60
37794;DHT22;23632;48.826;15.176;2022-08-23T00:58:59;16.50;88.40
37794;DHT22;23632;48.826;15.176;2022-08-23T01:01:26;16.50;88.40
37794;DHT22;23632;48.826;15.176;2022-08-23T01:03:56;16.50;88.30
37794;DHT22;23632;48.826;15.176;2022-08-23T01:06:52;16.50;88.20
37794;DHT22;23632;48.826;15.176;2022-08-23T01:09:24;16.50;88.20
37794;DHT22;23632;48.826;15.176;2022-08-23T01:12:12;16.50;88.30
37794;DHT22;23632;48.826;15.176;2022-08-23T01:18:05;16.50;88.40
37794;DHT22;23632;48.826;15.176;2022-08-23T01:20:48;16.50;88.60
37794;DHT22;23632;48.826;15.176;2022-08-23T01:23:45;16.50;88.50
37794;DHT22;23632;48.826;15.176;2022-08-23T01:26:18;16.50;88.40
37794;DHT22;23632;48.826;15.176;2022-08-23T01:28:49;16.60;88.50
37794;DHT22;23632;48.826;15.176;2022-08-23T01:31:18;16.50;88.60
37794;DHT22;23632;48.826;15.176;2022-08-23T01:33:53;16.50;88.70
37794;DHT22;23632;48.826;15.176;2022-08-23T01:36:24;16.50;88.70
37794;DHT22;23632;48.826;15.176;2022-08-23T01:38:53;16.50;88.60
37794;DHT22;23632;48.826;15.176;2022-08-23T01:41:21;16.50;88.70
37794;DHT22;23632;48.826;15.176;2022-08-23T01:43:48;16.50;88.70
37794;DHT22;23632;48.826;15.176;2022-08-23T01:46:21;16.50;88.70
37794;DHT22;23632;48.826;15.176;2022-08-23T01:48:50;16.50;88.80
37794;DHT22;23632;48.826;15.176;2022-08-23T01:51:18;16.50;88.70
37794;DHT22;23632;48.826;15.176;2022-08-23T01:53:47;16.50;88.70
37794;DHT22;23632;48.826;15.176;2022-08-23T01:56:17;16.50;88.80
37794;DHT22;23632;48.826;15.176;2022-08-23T01:59:07;16.50;88.90
37794;DHT22;23632;48.826;15.176;2022-08-23T02:01:40;16.60;89.90
37794;DHT22;23632;48.826;15.176;2022-08-23T02:04:08;16.60;88.90
37794;DHT22;23632;48.826;15.176;2022-08-23T02:06:35;16.50;88.90
37794;DHT22;23632;48.826;15.176;2022-08-23T02:09:04;16.50;89.00
37794;DHT22;23632;48.826;15.176;2022-08-23T02:11:44;16.60;89.10
37794;DHT22;23632;48.826;15.176;2022-08-23T02:14:16;16.60;89.10
37794;DHT22;23632;48.826;15.176;2022-08-23T02:16:53;16.60;89.00
37794;DHT22;23632;48.826;15.176;2022-08-23T02:19:36;16.60;89.00
37794;DHT22;23632;48.826;15.176;2022-08-23T02:22:05;16.60;88.80
37794;DHT22;23632;48.826;15.176;2022-08-23T02:24:37;16.60;89.00
37794;DHT22;23632;48.826;15.176;2022-08-23T02:27:06;16.60;89.20
37794;DHT22;23632;48.826;15.176;2022-08-23T02:29:38;16.60;89.90
37794;DHT22;23632;48.826;15.176;2022-08-23T02:32:09;16.60;89.10
37794;DHT22;23632;48.826;15.176;2022-08-23T02:34:39;16.60;89.00
37794;DHT22;23632;48.826;15.176;2022-08-23T02:37:09;16.60;89.10
37794;DHT22;23632;48.826;15.176;2022-08-23T02:39:37;16.70;89.20
37794;DHT22;23632;48.826;15.176;2022-08-23T02:42:07;16.60;89.10
37794;DHT22;23632;48.826;15.176;2022-08-23T02:44:40;16.60;89.20
37794;DHT22;23632;48.826;15.176;2022-08-23T02:47:07;16.60;89.30
37794;DHT22;23632;48.826;15.176;2022-08-23T02:49:37;16.60;89.20
37794;DHT22;23632;48.826;15.176;2022-08-23T02:52:05;16.70;89.20
37794;DHT22;23632;48.826;15.176;2022-08-23T02:54:34;16.70;89.30
37794;DHT22;23632;48.826;15.176;2022-08-23T02:57:02;16.70;89.30
37794;DHT22;23632;48.826;15.176;2022-08-23T02:59:30;16.70;89.10
37794;DHT22;23632;48.826;15.176;2022-08-23T03:01:58;16.70;89.20
37794;DHT22;23632;48.826;15.176;2022-08-23T03:04:30;16.70;89.30
37794;DHT22;23632;48.826;15.176;2022-08-23T03:06:57;16.70;89.20
37794;DHT22;23632;48.826;15.176;2022-08-23T03:09:25;16.70;89.30
37794;DHT22;23632;48.826;15.176;2022-08-23T03:11:52;16.70;89.30
37794;DHT22;23632;48.826;15.176;2022-08-23T03:14:20;16.70;89.30
37794;DHT22;23632;48.826;15.176;2022-08-23T03:16:50;16.70;89.30
37794;DHT22;23632;48.826;15.176;2022-08-23T03:19:18;16.70;89.20
37794;DHT22;23632;48.826;15.176;2022-08-23T03:21:47;16.70;89.00
37794;DHT22;23632;48.826;15.176;2022-08-23T03:24:17;16.70;89.20
37794;DHT22;23632;48.826;15.176;2022-08-23T03:26:45;16.70;89.20
37794;DHT22;23632;48.826;15.176;2022-08-23T03:29:16;16.70;89.20
37794;DHT22;23632;48.826;15.176;2022-08-23T03:31:58;16.70;90.00
37794;DHT22;23632;48.826;15.176;2022-08-23T03:34:27;16.70;89.20
37794;DHT22;23632;48.826;15.176;2022-08-23T03:36:56;16.70;89.30
37794;DHT22;23632;48.826;15.176;2022-08-23T03:39:23;16.70;89.40
37794;DHT22;23632;48.826;15.176;2022-08-23T03:41:51;16.60;89.50
37794;DHT22;23632;48.826;15.176;2022-08-23T03:44:18;16.60;89.50
37794;DHT22;23632;48.826;15.176;2022-08-23T03:46:46;16.60;89.50
37794;DHT22;23632;48.826;15.176;2022-08-23T03:49:14;16.60;89.60
37794;DHT22;23632;48.826;15.176;2022-08-23T03:51:50;16.60;89.50
37794;DHT22;23632;48.826;15.176;2022-08-23T03:54:18;16.70;89.50
37794;DHT22;23632;48.826;15.176;2022-08-23T03:56:56;16.70;89.30
37794;DHT22;23632;48.826;15.176;2022-08-23T03:59:33;16.70;89.50
37794;DHT22;23632;48.826;15.176;2022-08-23T04:02:06;16.60;89.40
37794;DHT22;23632;48.826;15.176;2022-08-23T04:04:34;16.70;89.50
37794;DHT22;23632;48.826;15.176;2022-08-23T04:07:21;16.70;89.60
37794;DHT22;23632;48.826;15.176;2022-08-23T04:09:52;16.70;89.40
37794;DHT22;23632;48.826;15.176;2022-08-23T04:12:23;16.70;89.70
37794;DHT22;23632;48.826;15.176;2022-08-23T04:14:50;16.70;90.00
37794;DHT22;23632;48.826;15.176;2022-08-23T04:17:20;16.70;90.00
37794;DHT22;23632;48.826;15.176;2022-08-23T04:19:49;16.60;90.00
37794;DHT22;23632;48.826;15.176;2022-08-23T04:22:18;16.70;90.00
37794;DHT22;23632;48.826;15.176;2022-08-23T04:24:46;16.70;90.10
37794;DHT22;23632;48.826;15.176;2022-08-23T04:27:15;16.70;90.10
37794;DHT22;23632;48.826;15.176;2022-08-23T04:29:44;16.70;90.10
37794;DHT22;23632;48.826;15.176;2022-08-23T04:32:11;16.70;90.10
37794;DHT22;23632;48.826;15.176;2022-08-23T04:34:51;16.70;90.10
37794;DHT22;23632;48.826;15.176;2022-08-23T04:37:19;16.70;90.10
37794;DHT22;23632;48.826;15.176;2022-08-23T04:39:46;16.70;90.10
37794;DHT22;23632;48.826;15.176;2022-08-23T04:42:39;16.70;90.10
37794;DHT22;23632;48.826;15.176;2022-08-23T04:45:07;16.70;90.10
37794;DHT22;23632;48.826;15.176;2022-08-23T04:47:36;16.70;90.10
37794;DHT22;23632;48.826;15.176;2022-08-23T04:50:09;16.70;90.10
37794;DHT22;23632;48.826;15.176;2022-08-23T04:52:55;16.70;90.10
37794;DHT22;23632;48.826;15.176;2022-08-23T04:55:22;16.70;90.10
37794;DHT22;23632;48.826;15.176;2022-08-23T04:57:59;16.70;90.10
37794;DHT22;23632;48.826;15.176;2022-08-23T05:00:32;16.70;90.20
37794;DHT22;23632;48.826;15.176;2022-08-23T05:03:00;16.70;90.20
37794;DHT22;23632;48.826;15.176;2022-08-23T05:05:28;16.70;90.20
37794;DHT22;23632;48.826;15.176;2022-08-23T05:07:55;16.70;90.20
37794;DHT22;23632;48.826;15.176;2022-08-23T05:10:23;16.70;90.20
37794;DHT22;23632;48.826;15.176;2022-08-23T05:12:52;16.80;90.20
37794;DHT22;23632;48.826;15.176;2022-08-23T05:15:21;16.80;90.20
37794;DHT22;23632;48.826;15.176;2022-08-23T05:17:56;16.80;90.20
37794;DHT22;23632;48.826;15.176;2022-08-23T05:20:23;16.80;90.20
37794;DHT22;23632;48.826;15.176;2022-08-23T05:22:50;16.80;90.30
37794;DHT22;23632;48.826;15.176;2022-08-23T05:25:40;16.80;90.30
37794;DHT22;23632;48.826;15.176;2022-08-23T05:28:42;16.80;90.20
37794;DHT22;23632;48.826;15.176;2022-08-23T05:31:19;16.80;90.20
37794;DHT22;23632;48.826;15.176;2022-08-23T05:33:51;16.80;90.20
37794;DHT22;23632;48.826;15.176;2022-08-23T05:36:38;16.80;90.20
37794;DHT22;23632;48.826;15.176;2022-08-23T05:39:22;16.80;90.20
37794;DHT22;23632;48.826;15.176;2022-08-23T05:42:05;16.90;90.20
37794;DHT22;23632;48.826;15.176;2022-08-23T05:44:35;16.90;90.20
37794;DHT22;23632;48.826;15.176;2022-08-23T05:47:06;16.80;90.20
37794;DHT22;23632;48.826;15.176;2022-08-23T05:49:57;16.90;90.20
37794;DHT22;23632;48.826;15.176;2022-08-23T05:52:28;16.90;90.30
37794;DHT22;23632;48.826;15.176;2022-08-23T05:54:55;16.90;90.30
37794;DHT22;23632;48.826;15.176;2022-08-23T05:57:41;16.90;90.30
37794;DHT22;23632;48.826;15.176;2022-08-23T06:00:10;16.90;90.30
37794;DHT22;23632;48.826;15.176;2022-08-23T06:02:47;16.90;90.30
37794;DHT22;23632;48.826;15.176;2022-08-23T06:05:17;16.90;90.30
37794;DHT22;23632;48.826;15.176;2022-08-23T06:07:46;16.90;90.50
37794;DHT22;23632;48.826;15.176;2022-08-23T06:10:16;16.90;90.30
37794;DHT22;23632;48.826;15.176;2022-08-23T06:12:51;16.90;90.40
37794;DHT22;23632;48.826;15.176;2022-08-23T06:15:20;16.90;90.40
37794;DHT22;23632;48.826;15.176;2022-08-23T06:17:48;17.00;90.40
37794;DHT22;23632;48.826;15.176;2022-08-23T06:20:15;17.00;90.30
37794;DHT22;23632;48.826;15.176;2022-08-23T06:23:00;17.00;90.30
37794;DHT22;23632;48.826;15.176;2022-08-23T06:25:28;17.00;90.30
37794;DHT22;23632;48.826;15.176;2022-08-23T06:28:05;17.00;90.40
37794;DHT22;23632;48.826;15.176;2022-08-23T06:30:33;17.10;90.40
37794;DHT22;23632;48.826;15.176;2022-08-23T06:33:11;17.10;90.40
37794;DHT22;23632;48.826;15.176;2022-08-23T06:36:08;17.10;90.40
37794;DHT22;23632;48.826;15.176;2022-08-23T06:38:55;17.10;90.40
37794;DHT22;23632;48.826;15.176;2022-08-23T06:41:43;17.10;90.40
37794;DHT22;23632;48.826;15.176;2022-08-23T06:44:26;17.10;90.40
37794;DHT22;23632;48.826;15.176;2022-08-23T06:47:00;17.10;90.40
37794;DHT22;23632;48.826;15.176;2022-08-23T06:49:28;17.20;90.50
37794;DHT22;23632;48.826;15.176;2022-08-23T06:51:57;17.20;90.40
37794;DHT22;23632;48.826;15.176;2022-08-23T06:55:04;17.20;90.40
37794;DHT22;23632;48.826;15.176;2022-08-23T06:57:50;17.20;90.50
37794;DHT22;23632;48.826;15.176;2022-08-23T07:00:36;17.20;90.40
37794;DHT22;23632;48.826;15.176;2022-08-23T07:03:22;17.20;90.40
37794;DHT22;23632;48.826;15.176;2022-08-23T07:06:18;17.20;90.50
37794;DHT22;23632;48.826;15.176;2022-08-23T07:08:49;17.30;90.50
37794;DHT22;23632;48.826;15.176;2022-08-23T07:11:19;17.20;90.50
37794;DHT22;23632;48.826;15.176;2022-08-23T07:13:47;17.30;90.50
37794;DHT22;23632;48.826;15.176;2022-08-23T07:16:15;17.30;90.70
37794;DHT22;23632;48.826;15.176;2022-08-23T07:18:46;17.30;90.70
37794;DHT22;23632;48.826;15.176;2022-08-23T07:21:15;17.40;90.80
37794;DHT22;23632;48.826;15.176;2022-08-23T07:23:45;17.40;90.80
37794;DHT22;23632;48.826;15.176;2022-08-23T07:26:14;17.40;90.80
37794;DHT22;23632;48.826;15.176;2022-08-23T07:28:42;17.50;90.70
37794;DHT22;23632;48.826;15.176;2022-08-23T07:31:17;17.50;90.90
37794;DHT22;23632;48.826;15.176;2022-08-23T07:33:49;17.50;90.60
37794;DHT22;23632;48.826;15.176;2022-08-23T07:36:21;17.60;90.60
37794;DHT22;23632;48.826;15.176;2022-08-23T07:38:50;17.60;90.60
37794;DHT22;23632;48.826;15.176;2022-08-23T07:41:19;17.60;90.60
37794;DHT22;23632;48.826;15.176;2022-08-23T07:43:47;17.70;90.60
37794;DHT22;23632;48.826;15.176;2022-08-23T07:46:15;17.70;90.70
37794;DHT22;23632;48.826;15.176;2022-08-23T07:48:42;17.70;90.70
37794;DHT22;23632;48.826;15.176;2022-08-23T07:51:28;17.70;90.70
37794;DHT22;23632;48.826;15.176;2022-08-23T07:53:57;17.70;90.60
37794;DHT22;23632;48.826;15.176;2022-08-23T07:56:25;17.70;90.70
37794;DHT22;23632;48.826;15.176;2022-08-23T07:59:05;17.70;90.70
37794;DHT22;23632;48.826;15.176;2022-08-23T08:01:41;17.80;90.70
37794;DHT22;23632;48.826;15.176;2022-08-23T08:04:09;17.80;90.60
37794;DHT22;23632;48.826;15.176;2022-08-23T08:06:44;17.80;90.50
37794;DHT22;23632;48.826;15.176;2022-08-23T08:09:33;17.80;90.50
37794;DHT22;23632;48.826;15.176;2022-08-23T08:12:00;17.80;90.50
37794;DHT22;23632;48.826;15.176;2022-08-23T08:14:30;17.80;90.40
37794;DHT22;23632;48.826;15.176;2022-08-23T08:16:58;17.90;90.50
37794;DHT22;23632;48.826;15.176;2022-08-23T08:19:44;17.80;90.50
37794;DHT22;23632;48.826;15.176;2022-08-23T08:22:27;17.80;90.50
37794;DHT22;23632;48.826;15.176;2022-08-23T08:25:10;17.80;90.50
37794;DHT22;23632;48.826;15.176;2022-08-23T08:27:41;17.80;90.60
37794;DHT22;23632;48.826;15.176;2022-08-23T08:30:09;17.80;90.60
37794;DHT22;23632;48.826;15.176;2022-08-23T08:32:38;17.90;90.60
37794;DHT22;23632;48.826;15.176;2022-08-23T08:35:13;17.90;90.70
37794;DHT22;23632;48.826;15.176;2022-08-23T08:37:41;17.90;90.80
37794;DHT22;23632;48.826;15.176;2022-08-23T08:40:09;17.90;90.80
37794;DHT22;23632;48.826;15.176;2022-08-23T08:46:06;18.00;90.70
37794;DHT22;23632;48.826;15.176;2022-08-23T08:48:55;18.00;90.90
37794;DHT22;23632;48.826;15.176;2022-08-23T08:52:04;18.10;91.00
37794;DHT22;23632;48.826;15.176;2022-08-23T08:54:42;18.10;91.10
37794;DHT22;23632;48.826;15.176;2022-08-23T08:57:17;18.20;91.10
37794;DHT22;23632;48.826;15.176;2022-08-23T08:59:58;18.20;91.00
37794;DHT22;23632;48.826;15.176;2022-08-23T09:02:34;18.30;91.10
37794;DHT22;23632;48.826;15.176;2022-08-23T09:05:21;18.30;91.00
37794;DHT22;23632;48.826;15.176;2022-08-23T09:11:15;18.40;91.00
37794;DHT22;23632;48.826;15.176;2022-08-23T09:16:28;18.50;90.90
37794;DHT22;23632;48.826;15.176;2022-08-23T09:18:56;18.40;90.80
37794;DHT22;23632;48.826;15.176;2022-08-23T09:21:25;18.60;90.70
37794;DHT22;23632;48.826;15.176;2022-08-23T09:23:54;18.40;90.60
37794;DHT22;23632;48.826;15.176;2022-08-23T09:26:37;18.40;90.60
37794;DHT22;23632;48.826;15.176;2022-08-23T09:31:56;18.40;90.60
37794;DHT22;23632;48.826;15.176;2022-08-23T09:37:12;18.40;90.60
37794;DHT22;23632;48.826;15.176;2022-08-23T09:39:51;18.40;90.60
37794;DHT22;23632;48.826;15.176;2022-08-23T09:42:28;18.40;90.60
37794;DHT22;23632;48.826;15.176;2022-08-23T09:44:58;18.40;90.70
37794;DHT22;23632;48.826;15.176;2022-08-23T09:47:34;18.40;90.90
37794;DHT22;23632;48.826;15.176;2022-08-23T09:52:49;18.40;90.70
37794;DHT22;23632;48.826;15.176;2022-08-23T09:55:37;18.40;90.90
37794;DHT22;23632;48.826;15.176;2022-08-23T09:58:16;18.50;90.90
37794;DHT22;23632;48.826;15.176;2022-08-23T10:00:45;18.50;90.90
37794;DHT22;23632;48.826;15.176;2022-08-23T10:03:33;18.60;91.00
37794;DHT22;23632;48.826;15.176;2022-08-23T10:06:28;18.60;91.10
37794;DHT22;23632;48.826;15.176;2022-08-23T10:09:01;18.70;91.00
37794;DHT22;23632;48.826;15.176;2022-08-23T10:11:37;18.70;90.90
37794;DHT22;23632;48.826;15.176;2022-08-23T10:14:13;18.70;90.80
37794;DHT22;23632;48.826;15.176;2022-08-23T10:17:02;18.70;91.10
37794;DHT22;23632;48.826;15.176;2022-08-23T10:19:52;18.70;90.40
37794;DHT22;23632;48.826;15.176;2022-08-23T10:22:54;18.70;90.50
37794;DHT22;23632;48.826;15.176;2022-08-23T10:25:58;18.70;90.50
37794;DHT22;23632;48.826;15.176;2022-08-23T10:28:41;18.60;90.50
37794;DHT22;23632;48.826;15.176;2022-08-23T10:37:57;18.60;90.60
37794;DHT22;23632;48.826;15.176;2022-08-23T10:46:47;18.50;90.60
37794;DHT22;23632;48.826;15.176;2022-08-23T10:49:21;18.50;90.70
37794;DHT22;23632;48.826;15.176;2022-08-23T10:51:49;18.50;90.80
37794;DHT22;23632;48.826;15.176;2022-08-23T10:54:28;18.50;90.80
37794;DHT22;23632;48.826;15.176;2022-08-23T10:57:16;18.50;90.80
37794;DHT22;23632;48.826;15.176;2022-08-23T10:59:47;18.50;90.80
37794;DHT22;23632;48.826;15.176;2022-08-23T11:02:32;18.50;90.90
37794;DHT22;23632;48.826;15.176;2022-08-23T11:05:24;18.50;90.80
37794;DHT22;23632;48.826;15.176;2022-08-23T11:18:48;18.50;90.60
37794;DHT22;23632;48.826;15.176;2022-08-23T11:31:44;18.50;90.60
37794;DHT22;23632;48.826;15.176;2022-08-23T11:44:55;18.60;91.00
37794;DHT22;23632;48.826;15.176;2022-08-23T11:47:37;18.60;91.10
37794;DHT22;23632;48.826;15.176;2022-08-23T11:50:25;18.60;91.00
37794;DHT22;23632;48.826;15.176;2022-08-23T11:53:20;18.70;91.00
37794;DHT22;23632;48.826;15.176;2022-08-23T11:56:15;18.70;90.90
37794;DHT22;23632;48.826;15.176;2022-08-23T12:01:51;18.80;90.90
37794;DHT22;23632;48.826;15.176;2022-08-23T12:04:40;18.80;91.10
37794;DHT22;23632;48.826;15.176;2022-08-23T12:07:13;18.80;91.00
37794;DHT22;23632;48.826;15.176;2022-08-23T12:12:28;18.90;91.00
37794;DHT22;23632;48.826;15.176;2022-08-23T12:15:08;18.90;90.80
37794;DHT22;23632;48.826;15.176;2022-08-23T12:20:11;19.00;90.90
37794;DHT22;23632;48.826;15.176;2022-08-23T12:25:25;19.00;90.80
37794;DHT22;23632;48.826;15.176;2022-08-23T12:28:09;19.00;90.80
37794;DHT22;23632;48.826;15.176;2022-08-23T12:31:04;19.00;90.70
37794;DHT22;23632;48.826;15.176;2022-08-23T12:36:50;19.00;90.80
37794;DHT22;23632;48.826;15.176;2022-08-23T12:39:32;19.00;90.90
37794;DHT22;23632;48.826;15.176;2022-08-23T12:42:14;19.00;90.90
37794;DHT22;23632;48.826;15.176;2022-08-23T12:44:44;19.00;90.90
37794;DHT22;23632;48.826;15.176;2022-08-23T12:47:18;19.00;91.10
37794;DHT22;23632;48.826;15.176;2022-08-23T12:50:05;19.10;91.10
37794;DHT22;23632;48.826;15.176;2022-08-23T12:52:36;19.20;91.20
37794;DHT22;23632;48.826;15.176;2022-08-23T12:55:17;19.20;91.30
37794;DHT22;23632;48.826;15.176;2022-08-23T12:57:51;19.30;91.40
37794;DHT22;23632;48.826;15.176;2022-08-23T13:05:53;19.50;91.20
37794;DHT22;23632;48.826;15.176;2022-08-23T13:09:08;19.60;91.10
37794;DHT22;23632;48.826;15.176;2022-08-23T13:11:41;19.70;91.10
37794;DHT22;23632;48.826;15.176;2022-08-23T13:14:26;19.70;91.10
37794;DHT22;23632;48.826;15.176;2022-08-23T13:19:52;19.80;91.00
37794;DHT22;23632;48.826;15.176;2022-08-23T13:22:38;19.80;91.10
37794;DHT22;23632;48.826;15.176;2022-08-23T13:25:31;19.80;91.00
37794;DHT22;23632;48.826;15.176;2022-08-23T13:28:05;19.80;91.00
37794;DHT22;23632;48.826;15.176;2022-08-23T13:31:01;19.90;90.90
37794;DHT22;23632;48.826;15.176;2022-08-23T13:33:34;19.90;91.20
37794;DHT22;23632;48.826;15.176;2022-08-23T13:36:09;19.90;91.20
37794;DHT22;23632;48.826;15.176;2022-08-23T13:38:40;20.00;91.10
37794;DHT22;23632;48.826;15.176;2022-08-23T13:41:10;20.00;91.20
37794;DHT22;23632;48.826;15.176;2022-08-23T13:43:51;20.00;91.00
37794;DHT22;23632;48.826;15.176;2022-08-23T13:46:28;20.10;91.10
37794;DHT22;23632;48.826;15.176;2022-08-23T13:49:07;20.10;91.00
37794;DHT22;23632;48.826;15.176;2022-08-23T13:51:41;20.20;91.10
37794;DHT22;23632;48.826;15.176;2022-08-23T13:54:49;20.20;91.10
37794;DHT22;23632;48.826;15.176;2022-08-23T13:57:20;20.20;91.10
37794;DHT22;23632;48.826;15.176;2022-08-23T13:59:51;20.30;91.00
37794;DHT22;23632;48.826;15.176;2022-08-23T14:02:21;20.30;90.80
37794;DHT22;23632;48.826;15.176;2022-08-23T14:04:49;20.30;90.70
37794;DHT22;23632;48.826;15.176;2022-08-23T14:07:17;20.30;90.80
37794;DHT22;23632;48.826;15.176;2022-08-23T14:09:45;20.30;90.60
37794;DHT22;23632;48.826;15.176;2022-08-23T14:12:15;20.20;90.70
37794;DHT22;23632;48.826;15.176;2022-08-23T14:14:44;20.20;90.70
37794;DHT22;23632;48.826;15.176;2022-08-23T14:17:12;20.20;90.80
37794;DHT22;23632;48.826;15.176;2022-08-23T14:19:43;20.20;90.80
37794;DHT22;23632;48.826;15.176;2022-08-23T14:22:34;20.20;90.90
37794;DHT22;23632;48.826;15.176;2022-08-23T14:25:01;20.20;91.00
37794;DHT22;23632;48.826;15.176;2022-08-23T14:27:28;20.20;91.00
37794;DHT22;23632;48.826;15.176;2022-08-23T14:29:56;20.20;91.10
37794;DHT22;23632;48.826;15.176;2022-08-23T14:32:23;20.30;91.00
37794;DHT22;23632;48.826;15.176;2022-08-23T14:34:51;20.30;91.00
37794;DHT22;23632;48.826;15.176;2022-08-23T14:37:18;20.30;90.90
37794;DHT22;23632;48.826;15.176;2022-08-23T14:40:05;20.30;90.70
37794;DHT22;23632;48.826;15.176;2022-08-23T14:42:35;20.20;90.60
37794;DHT22;23632;48.826;15.176;2022-08-23T14:45:03;20.20;90.60
37794;DHT22;23632;48.826;15.176;2022-08-23T14:47:31;20.20;90.60
37794;DHT22;23632;48.826;15.176;2022-08-23T14:50:03;20.10;90.60
37794;DHT22;23632;48.826;15.176;2022-08-23T14:52:35;20.10;90.60
37794;DHT22;23632;48.826;15.176;2022-08-23T14:55:08;20.10;90.60
37794;DHT22;23632;48.826;15.176;2022-08-23T14:57:35;20.00;90.60
37794;DHT22;23632;48.826;15.176;2022-08-23T15:00:05;20.00;90.60
37794;DHT22;23632;48.826;15.176;2022-08-23T15:02:34;20.00;90.50
37794;DHT22;23632;48.826;15.176;2022-08-23T15:05:02;20.00;90.70
37794;DHT22;23632;48.826;15.176;2022-08-23T15:07:30;19.90;90.70
37794;DHT22;23632;48.826;15.176;2022-08-23T15:09:57;19.90;90.70
37794;DHT22;23632;48.826;15.176;2022-08-23T15:12:24;19.90;90.70
37794;DHT22;23632;48.826;15.176;2022-08-23T15:15:14;19.90;90.70
37794;DHT22;23632;48.826;15.176;2022-08-23T15:17:53;19.90;90.70
37794;DHT22;23632;48.826;15.176;2022-08-23T15:20:28;19.80;90.50
37794;DHT22;23632;48.826;15.176;2022-08-23T15:22:57;19.80;90.60
37794;DHT22;23632;48.826;15.176;2022-08-23T15:25:29;19.80;90.60
37794;DHT22;23632;48.826;15.176;2022-08-23T15:27:58;19.80;90.50
37794;DHT22;23632;48.826;15.176;2022-08-23T15:30:27;19.80;90.60
37794;DHT22;23632;48.826;15.176;2022-08-23T15:32:59;19.70;90.50
37794;DHT22;23632;48.826;15.176;2022-08-23T15:35:28;19.70;90.60
37794;DHT22;23632;48.826;15.176;2022-08-23T15:37:55;19.70;90.80
37794;DHT22;23632;48.826;15.176;2022-08-23T15:40:23;19.70;90.90
37794;DHT22;23632;48.826;15.176;2022-08-23T15:42:52;19.60;90.60
37794;DHT22;23632;48.826;15.176;2022-08-23T15:45:19;19.70;90.70
37794;DHT22;23632;48.826;15.176;2022-08-23T15:47:53;19.60;90.60
37794;DHT22;23632;48.826;15.176;2022-08-23T15:50:24;19.60;90.50
37794;DHT22;23632;48.826;15.176;2022-08-23T15:52:53;19.70;90.50
37794;DHT22;23632;48.826;15.176;2022-08-23T15:55:21;19.60;90.50
37794;DHT22;23632;48.826;15.176;2022-08-23T15:57:50;19.60;90.50
37794;DHT22;23632;48.826;15.176;2022-08-23T16:00:21;19.60;90.50
37794;DHT22;23632;48.826;15.176;2022-08-23T16:02:50;19.60;90.50
37794;DHT22;23632;48.826;15.176;2022-08-23T16:05:39;19.60;90.50
37794;DHT22;23632;48.826;15.176;2022-08-23T16:08:15;19.60;90.50
37794;DHT22;23632;48.826;15.176;2022-08-23T16:10:45;19.60;90.40
37794;DHT22;23632;48.826;15.176;2022-08-23T16:13:12;19.60;90.40
37794;DHT22;23632;48.826;15.176;2022-08-23T16:15:40;19.50;90.40
37794;DHT22;23632;48.826;15.176;2022-08-23T16:18:07;19.50;90.30
37794;DHT22;23632;48.826;15.176;2022-08-23T16:20:34;19.50;90.30
37794;DHT22;23632;48.826;15.176;2022-08-23T16:23:02;19.50;90.30
37794;DHT22;23632;48.826;15.176;2022-08-23T16:25:30;19.50;90.30
37794;DHT22;23632;48.826;15.176;2022-08-23T16:27:57;19.40;90.30
37794;DHT22;23632;48.826;15.176;2022-08-23T16:30:24;19.40;90.40
37794;DHT22;23632;48.826;15.176;2022-08-23T16:32:51;19.40;90.40
37794;DHT22;23632;48.826;15.176;2022-08-23T16:35:18;19.40;90.40
37794;DHT22;23632;48.826;15.176;2022-08-23T16:37:46;19.40;90.50
37794;DHT22;23632;48.826;15.176;2022-08-23T16:40:13;19.40;90.50
37794;DHT22;23632;48.826;15.176;2022-08-23T16:42:40;19.40;90.50
37794;DHT22;23632;48.826;15.176;2022-08-23T16:45:08;19.30;90.50
37794;DHT22;23632;48.826;15.176;2022-08-23T16:47:42;19.30;90.50
37794;DHT22;23632;48.826;15.176;2022-08-23T16:50:11;19.40;90.50
37794;DHT22;23632;48.826;15.176;2022-08-23T16:52:39;19.40;90.50
37794;DHT22;23632;48.826;15.176;2022-08-23T16:55:09;19.30;90.50
37794;DHT22;23632;48.826;15.176;2022-08-23T16:57:38;19.30;90.40
37794;DHT22;23632;48.826;15.176;2022-08-23T17:00:07;19.30;90.40
37794;DHT22;23632;48.826;15.176;2022-08-23T17:02:40;19.40;90.40
37794;DHT22;23632;48.826;15.176;2022-08-23T17:05:11;19.30;90.30
37794;DHT22;23632;48.826;15.176;2022-08-23T17:07:41;19.30;90.20
37794;DHT22;23632;48.826;15.176;2022-08-23T17:10:10;19.30;90.30
37794;DHT22;23632;48.826;15.176;2022-08-23T17:12:42;19.30;90.30
37794;DHT22;23632;48.826;15.176;2022-08-23T17:15:15;19.30;90.30
37794;DHT22;23632;48.826;15.176;2022-08-23T17:17:46;19.30;90.30
37794;DHT22;23632;48.826;15.176;2022-08-23T17:20:15;19.20;90.30
37794;DHT22;23632;48.826;15.176;2022-08-23T17:22:45;19.20;90.30
37794;DHT22;23632;48.826;15.176;2022-08-23T17:25:13;19.20;90.30
37794;DHT22;23632;48.826;15.176;2022-08-23T17:27:41;19.20;90.30
37794;DHT22;23632;48.826;15.176;2022-08-23T17:30:14;19.20;90.30